sensor_id;sensor_type;location;lat;lon;timestamp;temperature;humidity
10344;DHT22;5217;43.960;10.954;2022-11-15T00:01:22;15.80;96.60
10344;DHT22;5217;43.960;10.954;2022-11-15T00:03:51;15.70;96.50
10344;DHT22;5217;43.960;10.954;2022-11-15T00:06:19;15.70;96.50
10344;DHT22;5217;43.960;10.954;2022-11-15T00:08:48;15.80;96.60
10344;DHT22;5217;43.960;10.954;2022-11-15T00:11:16;15.70;96.60
10344;DHT22;5217;43.960;10.954;2022-11-15T00:13:44;15.70;96.60
10344;DHT22;5217;43.960;10.954;2022-11-15T00:16:13;15.70;96.70
10344;DHT22;5217;43.960;10.954;2022-11-15T00:18:43;15.70;96.70
10344;DHT22;5217;43.960;10.954;2022-11-15T00:21:17;15.70;96.80
10344;DHT22;5217;43.960;10.954;2022-11-15T00:23:46;15.70;96.80
10344;DHT22;5217;43.960;10.954;2022-11-15T00:26:15;15.70;96.80
10344;DHT22;5217;43.960;10.954;2022-11-15T00:28:43;15.70;96.70
10344;DHT22;5217;43.960;10.954;2022-11-15T00:31:13;15.70;96.70
10344;DHT22;5217;43.960;10.954;2022-11-15T00:33:45;15.70;96.80
10344;DHT22;5217;43.960;10.954;2022-11-15T00:36:13;15.70;96.80
10344;DHT22;5217;43.960;10.954;2022-11-15T00:38:42;15.70;96.90
10344;DHT22;5217;43.960;10.954;2022-11-15T00:41:10;15.70;96.80
10344;DHT22;5217;43.960;10.954;2022-11-15T00:43:38;15.70;96.80
10344;DHT22;5217;43.960;10.954;2022-11-15T00:46:10;15.70;96.70
10344;DHT22;5217;43.960;10.954;2022-11-15T00:48:39;15.60;96.60
10344;DHT22;5217;43.960;10.954;2022-11-15T00:51:09;15.70;96.70
10344;DHT22;5217;43.960;10.954;2022-11-15T00:53:37;15.60;96.60
10344;DHT22;5217;43.960;10.954;2022-11-15T00:56:06;15.60;96.70
10344;DHT22;5217;43.960;10.954;2022-11-15T00:58:34;15.60;96.80
10344;DHT22;5217;43.960;10.954;2022-11-15T01:01:06;15.60;96.90
10344;DHT22;5217;43.960;10.954;2022-11-15T01:03:36;15.60;97.00
10344;DHT22;5217;43.960;10.954;2022-11-15T01:06:05;15.60;97.00
10344;DHT22;5217;43.960;10.954;2022-11-15T01:08:35;15.60;97.10
10344;DHT22;5217;43.960;10.954;2022-11-15T01:11:05;15.60;97.10
10344;DHT22;5217;43.960;10.954;2022-11-15T01:13:34;15.50;97.00
10344;DHT22;5217;43.960;10.954;2022-11-15T01:16:07;15.50;97.00
10344;DHT22;5217;43.960;10.954;2022-11-15T01:18:36;15.50;97.00
10344;DHT22;5217;43.960;10.954;2022-11-15T01:21:06;15.50;96.90
10344;DHT22;5217;43.960;10.954;2022-11-15T01:23:36;15.50;96.70
10344;DHT22;5217;43.960;10.954;2022-11-15T01:26:07;15.40;96.60
10344;DHT22;5217;43.960;10.954;2022-11-15T01:28:37;15.40;96.50
10344;DHT22;5217;43.960;10.954;2022-11-15T01:31:09;15.40;96.50
10344;DHT22;5217;43.960;10.954;2022-11-15T01:33:38;15.40;96.50
10344;DHT22;5217;43.960;10.954;2022-11-15T01:36:08;15.40;96.40
10344;DHT22;5217;43.960;10.954;2022-11-15T01:38:39;15.40;96.40
10344;DHT22;5217;43.960;10.954;2022-11-15T01:41:16;15.30;96.30
10344;DHT22;5217;43.960;10.954;2022-11-15T01:43:48;15.30;96.60
10344;DHT22;5217;43.960;10.954;2022-11-15T01:46:29;15.30;96.10
10344;DHT22;5217;43.960;10.954;2022-11-15T01:49:02;15.30;96.00
10344;DHT22;5217;43.960;10.954;2022-11-15T01:51:33;15.30;96.00
10344;DHT22;5217;43.960;10.954;2022-11-15T01:54:06;15.30;96.10
10344;DHT22;5217;43.960;10.954;2022-11-15T01:56:40;15.30;96.20
10344;DHT22;5217;43.960;10.954;2022-11-15T01:59:11;15.20;96.30
10344;DHT22;5217;43.960;10.954;2022-11-15T02:01:39;15.20;96.30
10344;DHT22;5217;43.960;10.954;2022-11-15T02:04:11;15.20;96.30
10344;DHT22;5217;43.960;10.954;2022-11-15T02:06:41;15.20;96.30
10344;DHT22;5217;43.960;10.954;2022-11-15T02:09:13;15.20;96.40
10344;DHT22;5217;43.960;10.954;2022-11-15T02:11:42;15.20;96.60
10344;DHT22;5217;43.960;10.954;2022-11-15T02:14:12;15.20;96.70
10344;DHT22;5217;43.960;10.954;2022-11-15T02:16:48;15.20;96.80
10344;DHT22;5217;43.960;10.954;2022-11-15T02:19:34;15.20;96.90
10344;DHT22;5217;43.960;10.954;2022-11-15T02:22:16;15.20;97.10
10344;DHT22;5217;43.960;10.954;2022-11-15T02:25:13;15.20;97.00
10344;DHT22;5217;43.960;10.954;2022-11-15T02:30:56;15.10;97.00
10344;DHT22;5217;43.960;10.954;2022-11-15T02:33:35;15.10;97.00
10344;DHT22;5217;43.960;10.954;2022-11-15T02:36:09;15.10;97.10
10344;DHT22;5217;43.960;10.954;2022-11-15T02:38:42;15.10;97.20
10344;DHT22;5217;43.960;10.954;2022-11-15T02:41:15;15.10;97.20
10344;DHT22;5217;43.960;10.954;2022-11-15T02:43:47;15.10;97.30
10344;DHT22;5217;43.960;10.954;2022-11-15T02:46:31;15.10;97.30
10344;DHT22;5217;43.960;10.954;2022-11-15T02:49:19;15.10;97.30
10344;DHT22;5217;43.960;10.954;2022-11-15T02:51:48;15.10;97.30
10344;DHT22;5217;43.960;10.954;2022-11-15T02:54:21;15.10;97.20
10344;DHT22;5217;43.960;10.954;2022-11-15T02:56:51;15.10;97.20
10344;DHT22;5217;43.960;10.954;2022-11-15T02:59:35;15.00;97.10
10344;DHT22;5217;43.960;10.954;2022-11-15T03:02:21;15.00;97.10
10344;DHT22;5217;43.960;10.954;2022-11-15T03:04:54;15.00;97.20
10344;DHT22;5217;43.960;10.954;2022-11-15T03:07:27;15.00;97.20
10344;DHT22;5217;43.960;10.954;2022-11-15T03:10:03;15.00;97.20
10344;DHT22;5217;43.960;10.954;2022-11-15T03:12:38;15.00;97.20
10344;DHT22;5217;43.960;10.954;2022-11-15T03:15:14;15.00;97.00
10344;DHT22;5217;43.960;10.954;2022-11-15T03:17:51;15.00;97.10
10344;DHT22;5217;43.960;10.954;2022-11-15T03:20:21;15.00;97.00
10344;DHT22;5217;43.960;10.954;2022-11-15T03:22:49;14.90;96.90
10344;DHT22;5217;43.960;10.954;2022-11-15T03:25:22;14.90;97.00
10344;DHT22;5217;43.960;10.954;2022-11-15T03:27:53;14.90;97.10
10344;DHT22;5217;43.960;10.954;2022-11-15T03:30:23;14.90;97.10
10344;DHT22;5217;43.960;10.954;2022-11-15T03:32:56;14.90;97.20
10344;DHT22;5217;43.960;10.954;2022-11-15T03:35:25;14.90;97.20
10344;DHT22;5217;43.960;10.954;2022-11-15T03:37:59;14.90;97.20
10344;DHT22;5217;43.960;10.954;2022-11-15T03:40:33;14.80;97.10
10344;DHT22;5217;43.960;10.954;2022-11-15T03:43:08;14.80;97.00
10344;DHT22;5217;43.960;10.954;2022-11-15T03:45:43;14.80;97.10
10344;DHT22;5217;43.960;10.954;2022-11-15T03:48:18;14.80;96.90
10344;DHT22;5217;43.960;10.954;2022-11-15T03:50:47;14.80;96.90
10344;DHT22;5217;43.960;10.954;2022-11-15T03:53:17;14.80;96.90
10344;DHT22;5217;43.960;10.954;2022-11-15T03:55:45;14.80;96.90
10344;DHT22;5217;43.960;10.954;2022-11-15T03:58:13;14.80;97.10
10344;DHT22;5217;43.960;10.954;2022-11-15T04:00:42;14.80;97.20
10344;DHT22;5217;43.960;10.954;2022-11-15T04:03:10;14.80;97.30
10344;DHT22;5217;43.960;10.954;2022-11-15T04:05:40;14.70;97.30
10344;DHT22;5217;43.960;10.954;2022-11-15T04:08:08;14.80;97.50
10344;DHT22;5217;43.960;10.954;2022-11-15T04:10:37;14.80;97.60
10344;DHT22;5217;43.960;10.954;2022-11-15T04:13:05;14.80;97.60
10344;DHT22;5217;43.960;10.954;2022-11-15T04:15:34;14.80;97.70
10344;DHT22;5217;43.960;10.954;2022-11-15T04:18:02;14.80;97.80
10344;DHT22;5217;43.960;10.954;2022-11-15T04:20:31;14.70;97.80
10344;DHT22;5217;43.960;10.954;2022-11-15T04:23:20;14.70;97.90
10344;DHT22;5217;43.960;10.954;2022-11-15T04:26:05;14.80;98.00
10344;DHT22;5217;43.960;10.954;2022-11-15T04:28:34;14.70;98.00
10344;DHT22;5217;43.960;10.954;2022-11-15T04:31:02;14.80;98.20
10344;DHT22;5217;43.960;10.954;2022-11-15T04:33:30;14.80;98.20
10344;DHT22;5217;43.960;10.954;2022-11-15T04:35:59;14.80;98.20
10344;DHT22;5217;43.960;10.954;2022-11-15T04:38:47;14.80;98.20
10344;DHT22;5217;43.960;10.954;2022-11-15T04:41:15;14.80;98.30
10344;DHT22;5217;43.960;10.954;2022-11-15T04:43:44;14.80;98.30
10344;DHT22;5217;43.960;10.954;2022-11-15T04:46:12;14.80;98.30
10344;DHT22;5217;43.960;10.954;2022-11-15T04:48:40;14.80;98.40
10344;DHT22;5217;43.960;10.954;2022-11-15T04:51:09;14.80;98.40
10344;DHT22;5217;43.960;10.954;2022-11-15T04:53:37;14.80;98.60
10344;DHT22;5217;43.960;10.954;2022-11-15T04:56:07;14.80;98.70
10344;DHT22;5217;43.960;10.954;2022-11-15T04:58:35;14.80;98.70
10344;DHT22;5217;43.960;10.954;2022-11-15T05:01:06;14.80;98.70
10344;DHT22;5217;43.960;10.954;2022-11-15T05:03:36;14.80;98.70
10344;DHT22;5217;43.960;10.954;2022-11-15T05:06:22;14.80;98.80
10344;DHT22;5217;43.960;10.954;2022-11-15T05:08:50;14.80;98.70
10344;DHT22;5217;43.960;10.954;2022-11-15T05:11:20;14.80;98.70
10344;DHT22;5217;43.960;10.954;2022-11-15T05:13:48;14.80;98.90
10344;DHT22;5217;43.960;10.954;2022-11-15T05:16:17;14.80;99.00
10344;DHT22;5217;43.960;10.954;2022-11-15T05:18:45;14.80;99.00
10344;DHT22;5217;43.960;10.954;2022-11-15T05:21:15;14.80;99.00
10344;DHT22;5217;43.960;10.954;2022-11-15T05:23:43;14.80;99.00
10344;DHT22;5217;43.960;10.954;2022-11-15T05:26:12;14.70;98.90
10344;DHT22;5217;43.960;10.954;2022-11-15T05:28:42;14.80;99.10
10344;DHT22;5217;43.960;10.954;2022-11-15T05:31:12;14.70;99.10
10344;DHT22;5217;43.960;10.954;2022-11-15T05:33:41;14.70;99.10
10344;DHT22;5217;43.960;10.954;2022-11-15T05:36:13;14.80;99.30
10344;DHT22;5217;43.960;10.954;2022-11-15T05:38:45;14.80;99.30
10344;DHT22;5217;43.960;10.954;2022-11-15T05:41:14;14.80;99.40
10344;DHT22;5217;43.960;10.954;2022-11-15T05:43:45;14.80;99.60
10344;DHT22;5217;43.960;10.954;2022-11-15T05:46:14;14.80;99.70
10344;DHT22;5217;43.960;10.954;2022-11-15T05:48:45;14.80;99.80
10344;DHT22;5217;43.960;10.954;2022-11-15T05:51:15;14.80;99.80
10344;DHT22;5217;43.960;10.954;2022-11-15T05:53:45;14.80;99.90
10344;DHT22;5217;43.960;10.954;2022-11-15T05:56:14;14.80;99.90
10344;DHT22;5217;43.960;10.954;2022-11-15T05:58:44;14.80;99.90
10344;DHT22;5217;43.960;10.954;2022-11-15T06:01:13;14.80;99.90
10344;DHT22;5217;43.960;10.954;2022-11-15T06:03:41;14.80;99.90
10344;DHT22;5217;43.960;10.954;2022-11-15T06:06:09;14.70;99.80
10344;DHT22;5217;43.960;10.954;2022-11-15T06:08:42;14.80;99.80
10344;DHT22;5217;43.960;10.954;2022-11-15T06:11:10;14.80;99.80
10344;DHT22;5217;43.960;10.954;2022-11-15T06:13:39;14.80;99.80
10344;DHT22;5217;43.960;10.954;2022-11-15T06:16:08;14.80;99.70
10344;DHT22;5217;43.960;10.954;2022-11-15T06:18:37;14.70;99.60
10344;DHT22;5217;43.960;10.954;2022-11-15T06:21:06;14.80;99.60
10344;DHT22;5217;43.960;10.954;2022-11-15T06:23:35;14.80;99.50
10344;DHT22;5217;43.960;10.954;2022-11-15T06:26:03;14.80;99.50
10344;DHT22;5217;43.960;10.954;2022-11-15T06:28:32;14.70;99.40
10344;DHT22;5217;43.960;10.954;2022-11-15T06:31:03;14.70;99.40
10344;DHT22;5217;43.960;10.954;2022-11-15T06:33:32;14.70;99.40
10344;DHT22;5217;43.960;10.954;2022-11-15T06:36:01;14.70;99.40
10344;DHT22;5217;43.960;10.954;2022-11-15T06:38:30;14.70;99.30
10344;DHT22;5217;43.960;10.954;2022-11-15T06:41:02;14.70;99.40
10344;DHT22;5217;43.960;10.954;2022-11-15T06:43:31;14.70;99.70
10344;DHT22;5217;43.960;10.954;2022-11-15T06:46:00;14.70;99.50
10344;DHT22;5217;43.960;10.954;2022-11-15T06:48:29;14.70;99.60
10344;DHT22;5217;43.960;10.954;2022-11-15T06:51:00;14.70;99.60
10344;DHT22;5217;43.960;10.954;2022-11-15T06:53:30;14.70;99.90
10344;DHT22;5217;43.960;10.954;2022-11-15T06:55:59;14.70;99.70
10344;DHT22;5217;43.960;10.954;2022-11-15T06:58:28;14.70;99.80
10344;DHT22;5217;43.960;10.954;2022-11-15T07:01:00;14.70;99.90
10344;DHT22;5217;43.960;10.954;2022-11-15T07:03:29;14.70;99.90
10344;DHT22;5217;43.960;10.954;2022-11-15T07:05:59;14.70;99.90
10344;DHT22;5217;43.960;10.954;2022-11-15T07:08:33;14.70;99.90
10344;DHT22;5217;43.960;10.954;2022-11-15T07:11:03;14.70;99.90
10344;DHT22;5217;43.960;10.954;2022-11-15T07:13:33;14.70;99.90
10344;DHT22;5217;43.960;10.954;2022-11-15T07:16:03;14.70;99.90
10344;DHT22;5217;43.960;10.954;2022-11-15T07:18:33;14.70;99.90
10344;DHT22;5217;43.960;10.954;2022-11-15T07:21:05;14.60;99.90
10344;DHT22;5217;43.960;10.954;2022-11-15T07:23:35;14.60;99.90
10344;DHT22;5217;43.960;10.954;2022-11-15T07:26:04;14.60;99.90
10344;DHT22;5217;43.960;10.954;2022-11-15T07:28:32;14.60;99.90
10344;DHT22;5217;43.960;10.954;2022-11-15T07:31:02;14.60;99.90
10344;DHT22;5217;43.960;10.954;2022-11-15T07:33:31;14.70;99.90
10344;DHT22;5217;43.960;10.954;2022-11-15T07:36:01;14.60;99.90
10344;DHT22;5217;43.960;10.954;2022-11-15T07:42:09;14.70;99.90
10344;DHT22;5217;43.960;10.954;2022-11-15T07:44:55;14.70;99.80
10344;DHT22;5217;43.960;10.954;2022-11-15T07:47:23;14.70;99.80
10344;DHT22;5217;43.960;10.954;2022-11-15T07:49:51;14.70;99.80
10344;DHT22;5217;43.960;10.954;2022-11-15T07:52:20;14.60;99.80
10344;DHT22;5217;43.960;10.954;2022-11-15T07:54:48;14.70;99.80
10344;DHT22;5217;43.960;10.954;2022-11-15T07:57:18;14.70;99.70
10344;DHT22;5217;43.960;10.954;2022-11-15T07:59:46;14.70;99.70
10344;DHT22;5217;43.960;10.954;2022-11-15T08:02:14;14.70;99.70
10344;DHT22;5217;43.960;10.954;2022-11-15T08:04:44;14.70;99.70
10344;DHT22;5217;43.960;10.954;2022-11-15T08:07:13;14.70;99.80
10344;DHT22;5217;43.960;10.954;2022-11-15T08:09:42;14.70;99.90
10344;DHT22;5217;43.960;10.954;2022-11-15T08:12:11;14.70;99.90
10344;DHT22;5217;43.960;10.954;2022-11-15T08:14:40;14.80;99.90
10344;DHT22;5217;43.960;10.954;2022-11-15T08:17:09;14.70;99.90
10344;DHT22;5217;43.960;10.954;2022-11-15T08:19:39;14.70;99.90
10344;DHT22;5217;43.960;10.954;2022-11-15T08:22:07;14.80;99.90
10344;DHT22;5217;43.960;10.954;2022-11-15T08:24:36;14.80;99.90
10344;DHT22;5217;43.960;10.954;2022-11-15T08:27:04;14.70;99.90
10344;DHT22;5217;43.960;10.954;2022-11-15T08:29:44;14.70;99.90
10344;DHT22;5217;43.960;10.954;2022-11-15T08:32:12;14.80;99.90
10344;DHT22;5217;43.960;10.954;2022-11-15T08:34:41;14.70;99.90
10344;DHT22;5217;43.960;10.954;2022-11-15T08:37:09;14.70;99.90
10344;DHT22;5217;43.960;10.954;2022-11-15T08:39:37;14.80;99.90
10344;DHT22;5217;43.960;10.954;2022-11-15T08:42:06;14.70;99.90
10344;DHT22;5217;43.960;10.954;2022-11-15T08:44:34;14.80;99.90
10344;DHT22;5217;43.960;10.954;2022-11-15T08:47:04;14.80;99.90
10344;DHT22;5217;43.960;10.954;2022-11-15T08:49:32;14.80;99.90
10344;DHT22;5217;43.960;10.954;2022-11-15T08:52:01;14.80;99.90
10344;DHT22;5217;43.960;10.954;2022-11-15T08:54:29;14.80;99.90
10344;DHT22;5217;43.960;10.954;2022-11-15T08:56:58;14.80;99.90
10344;DHT22;5217;43.960;10.954;2022-11-15T08:59:26;14.80;99.90
10344;DHT22;5217;43.960;10.954;2022-11-15T09:01:54;14.80;99.90
10344;DHT22;5217;43.960;10.954;2022-11-15T09:04:24;14.80;99.90
10344;DHT22;5217;43.960;10.954;2022-11-15T09:06:53;14.80;99.90
10344;DHT22;5217;43.960;10.954;2022-11-15T09:09:21;14.90;99.90
10344;DHT22;5217;43.960;10.954;2022-11-15T09:11:50;14.90;99.90
10344;DHT22;5217;43.960;10.954;2022-11-15T09:14:23;14.90;99.90
10344;DHT22;5217;43.960;10.954;2022-11-15T09:16:52;14.90;99.90
10344;DHT22;5217;43.960;10.954;2022-11-15T09:19:20;14.90;99.90
10344;DHT22;5217;43.960;10.954;2022-11-15T09:21:50;14.90;99.90
10344;DHT22;5217;43.960;10.954;2022-11-15T09:24:18;14.90;99.90
10344;DHT22;5217;43.960;10.954;2022-11-15T09:26:49;15.00;99.90
10344;DHT22;5217;43.960;10.954;2022-11-15T09:29:18;15.00;99.90
10344;DHT22;5217;43.960;10.954;2022-11-15T09:31:46;15.00;99.90
10344;DHT22;5217;43.960;10.954;2022-11-15T09:34:15;14.90;99.90
10344;DHT22;5217;43.960;10.954;2022-11-15T09:36:43;15.00;99.90
10344;DHT22;5217;43.960;10.954;2022-11-15T09:39:13;15.00;99.90
10344;DHT22;5217;43.960;10.954;2022-11-15T09:42:00;15.00;99.90
10344;DHT22;5217;43.960;10.954;2022-11-15T09:44:42;14.90;99.90
10344;DHT22;5217;43.960;10.954;2022-11-15T09:47:32;15.00;99.90
10344;DHT22;5217;43.960;10.954;2022-11-15T09:50:10;14.90;99.90
10344;DHT22;5217;43.960;10.954;2022-11-15T09:52:43;15.00;99.90
10344;DHT22;5217;43.960;10.954;2022-11-15T09:55:14;14.90;99.90
10344;DHT22;5217;43.960;10.954;2022-11-15T09:57:54;15.00;99.90
10344;DHT22;5217;43.960;10.954;2022-11-15T10:00:31;15.00;99.90
10344;DHT22;5217;43.960;10.954;2022-11-15T10:03:20;15.00;99.90
10344;DHT22;5217;43.960;10.954;2022-11-15T10:05:53;15.00;99.90
10344;DHT22;5217;43.960;10.954;2022-11-15T10:08:31;15.00;99.90
10344;DHT22;5217;43.960;10.954;2022-11-15T10:11:06;15.00;99.90
10344;DHT22;5217;43.960;10.954;2022-11-15T10:13:58;15.00;99.90
10344;DHT22;5217;43.960;10.954;2022-11-15T10:16:53;15.00;99.90
10344;DHT22;5217;43.960;10.954;2022-11-15T10:19:28;15.00;99.90
10344;DHT22;5217;43.960;10.954;2022-11-15T10:22:11;15.00;99.90
10344;DHT22;5217;43.960;10.954;2022-11-15T10:24:42;15.00;99.90
10344;DHT22;5217;43.960;10.954;2022-11-15T10:27:14;15.00;99.90
10344;DHT22;5217;43.960;10.954;2022-11-15T10:29:43;15.00;99.90
10344;DHT22;5217;43.960;10.954;2022-11-15T10:32:13;15.00;99.90
10344;DHT22;5217;43.960;10.954;2022-11-15T10:34:42;15.00;99.90
10344;DHT22;5217;43.960;10.954;2022-11-15T10:37:11;15.00;99.90
10344;DHT22;5217;43.960;10.954;2022-11-15T10:39:39;15.00;99.90
10344;DHT22;5217;43.960;10.954;2022-11-15T10:42:26;15.00;99.90
10344;DHT22;5217;43.960;10.954;2022-11-15T10:44:55;15.00;99.90
10344;DHT22;5217;43.960;10.954;2022-11-15T10:47:25;15.00;99.90
10344;DHT22;5217;43.960;10.954;2022-11-15T10:50:06;15.00;99.90
10344;DHT22;5217;43.960;10.954;2022-11-15T10:52:36;15.00;99.90
10344;DHT22;5217;43.960;10.954;2022-11-15T10:55:24;15.00;99.90
10344;DHT22;5217;43.960;10.954;2022-11-15T10:57:59;15.00;99.90
10344;DHT22;5217;43.960;10.954;2022-11-15T11:00:33;15.00;99.90
10344;DHT22;5217;43.960;10.954;2022-11-15T11:03:03;15.00;99.90
10344;DHT22;5217;43.960;10.954;2022-11-15T11:05:35;15.00;99.90
10344;DHT22;5217;43.960;10.954;2022-11-15T11:08:21;15.00;99.90
10344;DHT22;5217;43.960;10.954;2022-11-15T11:10:52;15.00;99.90
10344;DHT22;5217;43.960;10.954;2022-11-15T11:13:31;15.00;99.90
10344;DHT22;5217;43.960;10.954;2022-11-15T11:16:18;15.00;99.90
10344;DHT22;5217;43.960;10.954;2022-11-15T11:18:58;15.00;99.90
10344;DHT22;5217;43.960;10.954;2022-11-15T11:21:39;15.00;99.90
10344;DHT22;5217;43.960;10.954;2022-11-15T11:24:14;15.00;99.90
10344;DHT22;5217;43.960;10.954;2022-11-15T11:26:52;15.00;99.90
10344;DHT22;5217;43.960;10.954;2022-11-15T11:29:38;15.00;99.90
10344;DHT22;5217;43.960;10.954;2022-11-15T11:32:24;14.90;99.90
10344;DHT22;5217;43.960;10.954;2022-11-15T11:35:00;15.00;99.90
10344;DHT22;5217;43.960;10.954;2022-11-15T11:37:37;14.90;99.90
10344;DHT22;5217;43.960;10.954;2022-11-15T11:40:28;15.00;99.90
10344;DHT22;5217;43.960;10.954;2022-11-15T11:43:03;15.00;99.90
10344;DHT22;5217;43.960;10.954;2022-11-15T11:48:41;15.00;99.90
10344;DHT22;5217;43.960;10.954;2022-11-15T11:51:17;15.00;99.90
10344;DHT22;5217;43.960;10.954;2022-11-15T11:53:52;15.00;99.90
10344;DHT22;5217;43.960;10.954;2022-11-15T11:56:26;15.00;99.90
10344;DHT22;5217;43.960;10.954;2022-11-15T11:58:59;15.00;99.90
10344;DHT22;5217;43.960;10.954;2022-11-15T12:01:34;15.00;99.90
10344;DHT22;5217;43.960;10.954;2022-11-15T12:04:09;15.00;99.90
10344;DHT22;5217;43.960;10.954;2022-11-15T12:06:45;15.00;99.90
10344;DHT22;5217;43.960;10.954;2022-11-15T12:09:17;15.00;99.90
10344;DHT22;5217;43.960;10.954;2022-11-15T12:11:52;15.00;99.90
10344;DHT22;5217;43.960;10.954;2022-11-15T12:14:34;15.00;99.90
10344;DHT22;5217;43.960;10.954;2022-11-15T12:17:07;15.10;99.90
10344;DHT22;5217;43.960;10.954;2022-11-15T12:19:36;15.10;99.90
10344;DHT22;5217;43.960;10.954;2022-11-15T12:22:10;15.10;99.90
10344;DHT22;5217;43.960;10.954;2022-11-15T12:24:42;15.00;99.90
10344;DHT22;5217;43.960;10.954;2022-11-15T12:27:17;15.10;99.90
10344;DHT22;5217;43.960;10.954;2022-11-15T12:29:55;15.10;99.90
10344;DHT22;5217;43.960;10.954;2022-11-15T12:32:30;15.10;99.90
10344;DHT22;5217;43.960;10.954;2022-11-15T12:35:01;15.10;99.90
10344;DHT22;5217;43.960;10.954;2022-11-15T12:37:44;15.10;99.90
10344;DHT22;5217;43.960;10.954;2022-11-15T12:40:26;15.10;99.90
10344;DHT22;5217;43.960;10.954;2022-11-15T12:45:43;15.10;99.90
10344;DHT22;5217;43.960;10.954;2022-11-15T12:54:57;15.10;99.90
10344;DHT22;5217;43.960;10.954;2022-11-15T12:57:38;15.10;99.90
10344;DHT22;5217;43.960;10.954;2022-11-15T13:03:26;15.10;99.90
10344;DHT22;5217;43.960;10.954;2022-11-15T13:06:08;15.10;99.90
10344;DHT22;5217;43.960;10.954;2022-11-15T13:08:40;15.10;99.90
10344;DHT22;5217;43.960;10.954;2022-11-15T13:11:44;15.10;99.90
10344;DHT22;5217;43.960;10.954;2022-11-15T13:14:46;15.10;99.90
10344;DHT22;5217;43.960;10.954;2022-11-15T13:17:33;15.10;99.90
10344;DHT22;5217;43.960;10.954;2022-11-15T13:20:20;15.10;99.90
10344;DHT22;5217;43.960;10.954;2022-11-15T13:22:51;15.10;99.90
10344;DHT22;5217;43.960;10.954;2022-11-15T13:28:29;15.10;99.90
10344;DHT22;5217;43.960;10.954;2022-11-15T13:31:01;15.10;99.90
10344;DHT22;5217;43.960;10.954;2022-11-15T13:33:33;15.10;99.90
10344;DHT22;5217;43.960;10.954;2022-11-15T13:36:06;15.10;99.90
10344;DHT22;5217;43.960;10.954;2022-11-15T13:38:37;15.10;99.90
10344;DHT22;5217;43.960;10.954;2022-11-15T13:41:18;15.10;99.90
10344;DHT22;5217;43.960;10.954;2022-11-15T13:43:50;15.10;99.90
10344;DHT22;5217;43.960;10.954;2022-11-15T13:46:20;15.10;99.90
10344;DHT22;5217;43.960;10.954;2022-11-15T13:48:53;15.10;99.90
10344;DHT22;5217;43.960;10.954;2022-11-15T13:51:26;15.10;99.90
10344;DHT22;5217;43.960;10.954;2022-11-15T13:53:58;15.10;99.90
10344;DHT22;5217;43.960;10.954;2022-11-15T13:56:28;15.10;99.90
10344;DHT22;5217;43.960;10.954;2022-11-15T13:58:58;15.10;99.90
10344;DHT22;5217;43.960;10.954;2022-11-15T14:01:30;15.00;99.90
10344;DHT22;5217;43.960;10.954;2022-11-15T14:04:00;15.10;99.90
10344;DHT22;5217;43.960;10.954;2022-11-15T14:06:29;15.10;99.90
10344;DHT22;5217;43.960;10.954;2022-11-15T14:09:02;15.00;99.90
10344;DHT22;5217;43.960;10.954;2022-11-15T14:11:31;15.00;99.90
10344;DHT22;5217;43.960;10.954;2022-11-15T14:14:13;15.00;99.90
10344;DHT22;5217;43.960;10.954;2022-11-15T14:16:44;15.00;99.90
10344;DHT22;5217;43.960;10.954;2022-11-15T14:22:26;15.00;99.90
10344;DHT22;5217;43.960;10.954;2022-11-15T14:25:15;15.00;99.90
10344;DHT22;5217;43.960;10.954;2022-11-15T14:28:07;15.00;99.90
10344;DHT22;5217;43.960;10.954;2022-11-15T14:30:38;15.00;99.90
10344;DHT22;5217;43.960;10.954;2022-11-15T14:33:18;15.00;99.90
10344;DHT22;5217;43.960;10.954;2022-11-15T14:35:48;15.00;99.90
10344;DHT22;5217;43.960;10.954;2022-11-15T14:38:17;15.00;99.90
10344;DHT22;5217;43.960;10.954;2022-11-15T14:40:45;15.00;99.90
10344;DHT22;5217;43.960;10.954;2022-11-15T14:43:14;15.00;99.90
10344;DHT22;5217;43.960;10.954;2022-11-15T14:45:44;15.00;99.90
10344;DHT22;5217;43.960;10.954;2022-11-15T14:48:12;15.00;99.90
10344;DHT22;5217;43.960;10.954;2022-11-15T14:50:40;15.00;99.90
10344;DHT22;5217;43.960;10.954;2022-11-15T14:53:12;15.00;99.90
10344;DHT22;5217;43.960;10.954;2022-11-15T14:55:42;15.00;99.90
10344;DHT22;5217;43.960;10.954;2022-11-15T14:58:11;15.00;99.90
10344;DHT22;5217;43.960;10.954;2022-11-15T15:00:40;15.00;99.90
10344;DHT22;5217;43.960;10.954;2022-11-15T15:03:11;15.00;99.90
10344;DHT22;5217;43.960;10.954;2022-11-15T15:05:41;15.00;99.90
10344;DHT22;5217;43.960;10.954;2022-11-15T15:08:10;15.00;99.90
10344;DHT22;5217;43.960;10.954;2022-11-15T15:10:40;15.00;99.90
10344;DHT22;5217;43.960;10.954;2022-11-15T15:13:16;15.00;99.90
10344;DHT22;5217;43.960;10.954;2022-11-15T15:15:46;15.00;99.90
10344;DHT22;5217;43.960;10.954;2022-11-15T15:18:17;15.00;99.90
10344;DHT22;5217;43.960;10.954;2022-11-15T15:20:55;14.90;99.90
10344;DHT22;5217;43.960;10.954;2022-11-15T15:23:27;15.00;99.90
10344;DHT22;5217;43.960;10.954;2022-11-15T15:25:57;15.00;99.90
10344;DHT22;5217;43.960;10.954;2022-11-15T15:28:26;15.00;99.90
10344;DHT22;5217;43.960;10.954;2022-11-15T15:31:00;15.00;99.90
10344;DHT22;5217;43.960;10.954;2022-11-15T15:33:30;15.00;99.90
10344;DHT22;5217;43.960;10.954;2022-11-15T15:35:59;15.00;99.90
10344;DHT22;5217;43.960;10.954;2022-11-15T15:38:27;15.00;99.90
10344;DHT22;5217;43.960;10.954;2022-11-15T15:40:56;15.00;99.90
10344;DHT22;5217;43.960;10.954;2022-11-15T15:43:26;15.10;99.90
10344;DHT22;5217;43.960;10.954;2022-11-15T15:45:54;15.00;99.90
10344;DHT22;5217;43.960;10.954;2022-11-15T15:48:23;15.10;99.90
10344;DHT22;5217;43.960;10.954;2022-11-15T15:50:52;15.10;99.90
10344;DHT22;5217;43.960;10.954;2022-11-15T15:53:21;15.10;99.90
10344;DHT22;5217;43.960;10.954;2022-11-15T15:55:49;15.10;99.90
10344;DHT22;5217;43.960;10.954;2022-11-15T15:58:17;15.10;99.90
10344;DHT22;5217;43.960;10.954;2022-11-15T16:00:46;15.10;99.90
10344;DHT22;5217;43.960;10.954;2022-11-15T16:03:14;15.10;99.90
10344;DHT22;5217;43.960;10.954;2022-11-15T16:05:43;15.10;99.90
10344;DHT22;5217;43.960;10.954;2022-11-15T16:08:18;15.10;99.90
10344;DHT22;5217;43.960;10.954;2022-11-15T16:10:46;15.10;99.90
10344;DHT22;5217;43.960;10.954;2022-11-15T16:13:15;15.20;99.90
10344;DHT22;5217;43.960;10.954;2022-11-15T16:15:45;15.10;99.90
10344;DHT22;5217;43.960;10.954;2022-11-15T16:18:16;15.10;99.90
10344;DHT22;5217;43.960;10.954;2022-11-15T16:20:46;15.10;99.90
10344;DHT22;5217;43.960;10.954;2022-11-15T16:23:18;15.10;99.90
10344;DHT22;5217;43.960;10.954;2022-11-15T16:25:52;15.10;99.90
10344;DHT22;5217;43.960;10.954;2022-11-15T16:28:23;15.10;99.90
10344;DHT22;5217;43.960;10.954;2022-11-15T16:31:00;15.10;99.90